Time;durP1;ratioP1;P1;durP2;ratioP2;P2;SDS_P1;SDS_P2;PMS_P1;PMS_P2;Temp;Humidity;BMP_temperature;BMP_pressure;BME280_temperature;BME280_humidity;BME280_pressure;Samples;Min_cycle;Max_cycle;Signal;HPM_P1;HPM_P2
2022/03/07 00:01:41;;;;;;;23.13;11.40;;;0.30;99.90;;;;;;5015125;28;20013;-73
2022/03/07 00:04:07;;;;;;;109.63;35.23;;;0.20;99.90;;;;;;5014960;28;20022;-73
2022/03/07 00:06:32;;;;;;;25.57;12.07;;;0.20;99.90;;;;;;5014916;28;20068;-73
2022/03/07 00:08:58;;;;;;;16.47;10.03;;;0.10;99.90;;;;;;5014812;28;20405;-73
2022/03/07 00:11:24;;;;;;;17.73;10.10;;;0.10;99.90;;;;;;5014997;28;20382;-73
2022/03/07 00:13:49;;;;;;;57.50;21.67;;;0.10;99.90;;;;;;5015060;28;20096;-73
2022/03/07 00:16:15;;;;;;;15.70;10.40;;;0.10;99.90;;;;;;5013038;28;20022;-77
2022/03/07 00:18:41;;;;;;;15.27;10.67;;;0.10;99.90;;;;;;5011909;28;20038;-76
2022/03/07 00:21:08;;;;;;;14.40;9.50;;;0.10;99.90;;;;;;5012257;28;20061;-76
2022/03/07 00:23:34;;;;;;;26.00;13.33;;;0.00;99.90;;;;;;5012165;28;20780;-76
2022/03/07 00:25:59;;;;;;;21.63;12.83;;;0.00;99.90;;;;;;5012148;28;20767;-76
2022/03/07 00:28:25;;;;;;;16.07;10.77;;;-0.10;99.90;;;;;;4994052;28;20033;-76
2022/03/07 00:30:50;;;;;;;18.53;10.80;;;-0.10;99.90;;;;;;5012096;28;20076;-77
2022/03/07 00:33:16;;;;;;;27.10;15.40;;;-0.10;99.90;;;;;;4994124;28;20112;-77
2022/03/07 00:35:42;;;;;;;19.80;12.00;;;-0.10;99.90;;;;;;4994530;28;20034;-76
2022/03/07 00:38:08;;;;;;;14.93;10.20;;;-0.20;99.90;;;;;;5011481;28;20037;-77
2022/03/07 00:40:33;;;;;;;13.97;10.07;;;-0.20;99.90;;;;;;5011779;28;20034;-77
2022/03/07 00:42:59;;;;;;;14.00;9.73;;;-0.20;99.90;;;;;;5011464;28;20366;-77
2022/03/07 00:45:25;;;;;;;13.03;9.73;;;-0.30;99.90;;;;;;5005697;28;20033;-77
2022/03/07 00:47:50;;;;;;;13.97;9.57;;;-0.30;99.90;;;;;;4996568;28;20058;-77
2022/03/07 00:50:16;;;;;;;13.80;9.83;;;-0.30;99.90;;;;;;4974671;28;20066;-77
2022/03/07 00:52:42;;;;;;;15.40;10.27;;;-0.30;99.90;;;;;;4991908;28;20041;-77
2022/03/07 00:55:08;;;;;;;13.97;10.10;;;-0.30;99.90;;;;;;4992169;28;20035;-77
2022/03/07 00:57:34;;;;;;;13.43;10.20;;;-0.40;99.90;;;;;;4991826;28;20391;-77
2022/03/07 00:59:59;;;;;;;17.00;10.40;;;-0.30;99.90;;;;;;4991950;28;20046;-77
2022/03/07 01:02:25;;;;;;;16.33;10.43;;;-0.20;99.90;;;;;;4991654;28;20027;-77
2022/03/07 01:04:51;;;;;;;16.67;10.60;;;-0.20;99.90;;;;;;4992286;28;20113;-77
2022/03/07 01:07:16;;;;;;;13.70;10.87;;;-0.20;99.90;;;;;;4973835;28;20026;-77
2022/03/07 01:09:42;;;;;;;16.07;10.90;;;-0.30;99.90;;;;;;4991495;28;20034;-77
2022/03/07 01:12:08;;;;;;;14.70;10.40;;;-0.30;99.90;;;;;;5002783;28;20044;-76
2022/03/07 01:14:34;;;;;;;14.03;10.30;;;-0.40;99.90;;;;;;4993638;28;20036;-76
2022/03/07 01:16:59;;;;;;;16.97;11.97;;;-0.40;99.90;;;;;;4989900;28;20069;-77
2022/03/07 01:19:25;;;;;;;19.80;11.80;;;-0.50;99.90;;;;;;4991390;28;20042;-76
2022/03/07 01:21:51;;;;;;;20.13;12.07;;;-0.50;99.90;;;;;;4991193;28;20022;-76
2022/03/07 01:24:18;;;;;;;17.13;11.13;;;-0.50;99.90;;;;;;4991658;28;20073;-76
2022/03/07 01:26:45;;;;;;;16.77;11.07;;;-0.30;99.90;;;;;;4991337;28;20052;-77
2022/03/07 01:29:11;;;;;;;16.07;11.03;;;-0.40;99.90;;;;;;4991311;28;20112;-77
2022/03/07 01:31:39;;;;;;;20.80;11.67;;;-0.50;99.90;;;;;;4989626;28;20507;-77
2022/03/07 01:34:05;;;;;;;18.83;12.30;;;-0.40;99.90;;;;;;4991491;28;20030;-77
2022/03/07 01:36:31;;;;;;;20.53;12.40;;;-0.40;99.90;;;;;;4991153;28;20559;-77
2022/03/07 01:38:56;;;;;;;18.07;12.50;;;-0.30;99.90;;;;;;4991300;28;20106;-77
2022/03/07 01:41:22;;;;;;;17.67;12.73;;;-0.50;99.90;;;;;;4990841;28;20030;-77
2022/03/07 01:43:48;;;;;;;16.27;11.57;;;-0.60;99.90;;;;;;4991319;28;20212;-77
2022/03/07 01:46:13;;;;;;;18.10;12.53;;;-0.50;99.90;;;;;;4983389;28;20042;-77
2022/03/07 01:48:39;;;;;;;18.20;12.43;;;-0.30;99.90;;;;;;4978240;28;20030;-77
2022/03/07 01:51:07;;;;;;;17.80;12.43;;;-0.40;99.90;;;;;;4991205;28;20026;-77
2022/03/07 01:53:33;;;;;;;15.10;11.47;;;-0.50;99.90;;;;;;4990916;28;20034;-77
2022/03/07 01:55:58;;;;;;;19.40;13.03;;;-0.40;99.90;;;;;;4991029;28;20045;-77
2022/03/07 01:58:24;;;;;;;21.83;14.10;;;-0.50;99.90;;;;;;4991091;28;20041;-77
2022/03/07 02:00:50;;;;;;;17.83;13.33;;;-0.60;99.90;;;;;;4990941;28;20042;-77
2022/03/07 02:03:15;;;;;;;20.13;13.43;;;-0.60;99.90;;;;;;4990626;28;20457;-77
2022/03/07 02:05:41;;;;;;;20.50;14.50;;;-0.60;99.90;;;;;;4990922;28;20450;-77
2022/03/07 02:08:07;;;;;;;21.80;15.17;;;-0.50;99.90;;;;;;4990610;28;20026;-77
2022/03/07 02:10:33;;;;;;;23.97;15.00;;;-0.50;99.90;;;;;;4991034;28;20058;-77
2022/03/07 02:12:59;;;;;;;23.00;15.50;;;-0.50;99.90;;;;;;4989274;28;20065;-77
2022/03/07 02:15:25;;;;;;;20.87;14.20;;;-0.50;99.90;;;;;;4990847;28;20034;-77
2022/03/07 02:17:50;;;;;;;23.97;15.30;;;-0.50;99.90;;;;;;5004317;28;20085;-77
2022/03/07 02:20:16;;;;;;;19.63;14.73;;;-0.50;99.90;;;;;;5010363;28;20113;-78
2022/03/07 02:22:43;;;;;;;20.63;15.03;;;-0.60;99.90;;;;;;5009874;28;20031;-78
2022/03/07 02:25:09;;;;;;;25.10;16.80;;;-0.70;99.90;;;;;;5010219;28;20061;-78
2022/03/07 02:27:35;;;;;;;20.90;15.10;;;-0.60;99.90;;;;;;5009984;28;20064;-78
2022/03/07 02:30:03;;;;;;;23.47;15.40;;;-0.60;99.90;;;;;;5010040;28;20062;-78
2022/03/07 02:32:28;;;;;;;23.40;14.97;;;-0.70;99.90;;;;;;5010099;28;20028;-78
2022/03/07 02:34:54;;;;;;;21.53;14.27;;;-0.70;99.90;;;;;;5010157;28;20097;-77
2022/03/07 02:37:20;;;;;;;20.33;14.87;;;-0.70;99.90;;;;;;5009999;28;20060;-78
2022/03/07 02:39:45;;;;;;;23.30;14.87;;;-0.70;99.90;;;;;;4992318;28;20037;-78
2022/03/07 02:42:12;;;;;;;20.93;15.80;;;-0.70;99.90;;;;;;4992213;28;20025;-78
2022/03/07 02:44:38;;;;;;;22.43;14.43;;;-0.60;99.90;;;;;;5006443;28;20038;-78
2022/03/07 02:47:04;;;;;;;19.63;13.77;;;-0.70;99.90;;;;;;4999087;28;20041;-78
2022/03/07 02:49:29;;;;;;;18.03;13.73;;;-0.70;99.90;;;;;;5008692;28;20034;-78
2022/03/07 02:51:55;;;;;;;17.00;11.83;;;-0.80;99.90;;;;;;5009742;28;20036;-78
2022/03/07 02:54:20;;;;;;;15.90;11.27;;;-0.60;99.90;;;;;;4992432;28;20112;-78
2022/03/07 02:56:47;;;;;;;17.70;12.40;;;-0.60;99.90;;;;;;5009615;28;20072;-78
2022/03/07 02:59:13;;;;;;;17.60;11.30;;;-0.70;99.90;;;;;;5010063;28;20041;-77
2022/03/07 03:01:39;;;;;;;15.57;11.27;;;-0.70;99.90;;;;;;5009758;28;20022;-77
2022/03/07 03:04:04;;;;;;;13.27;10.87;;;-0.70;99.90;;;;;;5009775;28;20053;-77
2022/03/07 03:06:30;;;;;;;14.93;10.37;;;-0.60;99.90;;;;;;5009740;28;20017;-77
2022/03/07 03:08:55;;;;;;;16.77;10.57;;;-0.70;99.90;;;;;;5009783;28;20038;-77
2022/03/07 03:11:21;;;;;;;14.60;9.93;;;-0.70;99.90;;;;;;4992241;28;20535;-77
2022/03/07 03:13:46;;;;;;;16.40;10.13;;;-0.80;99.90;;;;;;5009849;28;20113;-77
2022/03/07 03:16:12;;;;;;;13.67;10.00;;;-0.80;99.90;;;;;;5009567;28;20140;-77
2022/03/07 03:18:38;;;;;;;15.30;9.90;;;-0.70;99.90;;;;;;5009651;28;20037;-77
2022/03/07 03:21:03;;;;;;;13.80;9.73;;;-0.80;99.90;;;;;;5009696;28;20132;-77
2022/03/07 03:23:29;;;;;;;15.80;9.83;;;-0.90;99.90;;;;;;5009296;28;20034;-77
2022/03/07 03:25:55;;;;;;;15.33;10.47;;;-0.80;99.90;;;;;;5009877;28;20115;-77
2022/03/07 03:28:23;;;;;;;12.97;8.87;;;-0.80;99.90;;;;;;5009645;28;20030;-77
2022/03/07 03:30:50;;;;;;;13.03;9.80;;;-0.80;99.90;;;;;;4992003;28;20034;-77
2022/03/07 03:33:15;;;;;;;14.70;9.57;;;-0.70;99.90;;;;;;5010003;28;20038;-77
2022/03/07 03:35:41;;;;;;;11.17;8.73;;;-0.70;99.90;;;;;;5013185;28;20029;-77
2022/03/07 03:38:08;;;;;;;15.70;9.73;;;-0.70;99.90;;;;;;5012961;28;20372;-77
2022/03/07 03:40:35;;;;;;;14.47;9.90;;;-0.80;99.90;;;;;;5000849;28;20030;-77
2022/03/07 03:43:00;;;;;;;18.00;11.13;;;-0.90;99.90;;;;;;4993345;28;20030;-77
2022/03/07 03:45:26;;;;;;;17.07;11.93;;;-0.90;99.90;;;;;;5000028;28;20027;-77
2022/03/07 03:47:53;;;;;;;18.33;11.10;;;-0.90;99.90;;;;;;5008304;28;20137;-77
2022/03/07 03:50:18;;;;;;;16.03;11.47;;;-0.90;99.90;;;;;;5012841;28;20442;-76
2022/03/07 03:52:44;;;;;;;16.37;10.73;;;-1.00;99.90;;;;;;5012668;28;20132;-77
2022/03/07 03:55:12;;;;;;;13.93;10.10;;;-0.90;99.90;;;;;;5012997;28;20391;-77
2022/03/07 03:57:41;;;;;;;15.00;10.33;;;-0.90;99.90;;;;;;5012679;28;20026;-78
2022/03/07 04:00:10;;;;;;;15.63;9.63;;;-1.00;99.90;;;;;;4994844;28;20371;-78
2022/03/07 04:02:36;;;;;;;89.00;43.17;;;-1.10;99.90;;;;;;5012667;28;20054;-78
2022/03/07 04:05:02;;;;;;;58.60;32.00;;;-1.20;99.90;;;;;;5012682;28;20037;-78
2022/03/07 04:07:27;;;;;;;41.40;26.27;;;-1.30;99.90;;;;;;5012452;28;20029;-78
2022/03/07 04:09:53;;;;;;;29.73;19.67;;;-1.20;99.90;;;;;;5012658;28;20109;-78
2022/03/07 04:12:19;;;;;;;18.60;13.20;;;-1.10;99.90;;;;;;5012186;28;20069;-78
2022/03/07 04:14:44;;;;;;;16.27;10.97;;;-1.10;99.90;;;;;;5012579;28;20033;-78
2022/03/07 04:17:10;;;;;;;12.93;9.70;;;-1.00;99.90;;;;;;5012014;28;20058;-77
2022/03/07 04:19:35;;;;;;;14.03;9.60;;;-1.00;99.90;;;;;;5012528;28;20046;-78
2022/03/07 04:22:01;;;;;;;14.50;9.67;;;-1.10;99.90;;;;;;5012050;28;20499;-78
2022/03/07 04:24:30;;;;;;;12.87;9.30;;;-1.00;99.90;;;;;;4994752;28;20022;-77
2022/03/07 04:26:56;;;;;;;14.83;10.10;;;-1.10;99.90;;;;;;5012160;28;20022;-78
2022/03/07 04:29:22;;;;;;;17.30;11.30;;;-1.00;99.90;;;;;;5012167;28;20038;-78
2022/03/07 04:31:47;;;;;;;18.30;9.40;;;-1.10;99.90;;;;;;5012071;28;20082;-77
2022/03/07 04:34:13;;;;;;;14.10;10.20;;;-1.10;99.90;;;;;;5012321;28;20060;-77
2022/03/07 04:36:39;;;;;;;17.07;10.20;;;-1.10;99.90;;;;;;5011677;28;20057;-78
2022/03/07 04:39:06;;;;;;;14.40;9.53;;;-1.10;99.90;;;;;;4994427;28;20025;-77
2022/03/07 04:41:33;;;;;;;14.37;9.00;;;-1.20;99.90;;;;;;5011941;28;20634;-78
2022/03/07 04:43:59;;;;;;;14.10;9.60;;;-1.20;99.90;;;;;;4993824;28;20045;-78
2022/03/07 04:46:24;;;;;;;13.80;9.87;;;-1.20;99.90;;;;;;5004069;28;20796;-78
2022/03/07 04:48:50;;;;;;;15.20;10.40;;;-1.30;99.90;;;;;;4992460;28;20109;-78
2022/03/07 04:51:15;;;;;;;14.73;9.77;;;-1.30;99.90;;;;;;4974518;28;20089;-78
2022/03/07 04:53:41;;;;;;;13.37;9.83;;;-1.20;99.90;;;;;;5005730;28;20057;-77
2022/03/07 04:56:07;;;;;;;14.53;9.60;;;-1.10;99.90;;;;;;4994161;28;20048;-77
2022/03/07 04:58:33;;;;;;;13.17;8.80;;;-1.00;99.90;;;;;;5011452;28;20018;-76
2022/03/07 05:00:59;;;;;;;13.57;9.10;;;-0.90;99.90;;;;;;5011477;28;20034;-76
2022/03/07 05:03:25;;;;;;;15.13;9.70;;;-1.10;99.90;;;;;;5010989;28;20067;-76
2022/03/07 05:05:50;;;;;;;15.03;9.40;;;-1.00;99.90;;;;;;5011814;28;20026;-78
2022/03/07 05:08:17;;;;;;;16.50;9.90;;;-1.10;99.90;;;;;;5011333;28;20026;-78
2022/03/07 05:10:42;;;;;;;13.53;9.23;;;-1.00;99.90;;;;;;5011576;28;20444;-78
2022/03/07 05:13:09;;;;;;;15.40;9.97;;;-1.00;99.90;;;;;;4993587;28;20049;-78
2022/03/07 05:15:34;;;;;;;15.20;9.43;;;-1.10;99.90;;;;;;5011296;28;20030;-78
2022/03/07 05:18:00;;;;;;;13.00;9.00;;;-1.00;99.90;;;;;;5010991;28;20056;-78
2022/03/07 05:20:26;;;;;;;13.97;10.03;;;-1.00;99.90;;;;;;5011118;28;20038;-79
2022/03/07 05:22:52;;;;;;;16.80;11.43;;;-1.00;99.90;;;;;;5011021;28;20045;-78
2022/03/07 05:25:19;;;;;;;18.43;12.07;;;-1.10;99.90;;;;;;5011253;28;20090;-78
2022/03/07 05:27:45;;;;;;;16.33;11.23;;;-1.10;99.90;;;;;;5010234;28;20029;-78
2022/03/07 05:30:15;;;;;;;17.17;10.47;;;-1.00;99.90;;;;;;5010934;28;20018;-78
2022/03/07 05:32:45;;;;;;;17.90;10.90;;;-1.20;99.90;;;;;;5010039;28;20022;-79
2022/03/07 05:35:11;;;;;;;14.23;9.53;;;-1.30;99.90;;;;;;5010690;28;20026;-78
2022/03/07 05:37:37;;;;;;;13.57;10.07;;;-1.20;99.90;;;;;;5010501;28;20034;-79
2022/03/07 05:40:04;;;;;;;16.70;10.13;;;-1.10;99.90;;;;;;4992783;28;20075;-78
2022/03/07 05:42:30;;;;;;;14.30;9.93;;;-1.10;99.90;;;;;;4992735;28;20025;-78
2022/03/07 05:44:55;;;;;;;16.53;9.30;;;-1.20;99.90;;;;;;5005399;28;20034;-78
2022/03/07 05:47:21;;;;;;;14.40;9.90;;;-1.10;99.90;;;;;;5007545;28;20137;-78
2022/03/07 05:49:46;;;;;;;15.93;10.10;;;-1.20;99.90;;;;;;5010400;28;20147;-79
2022/03/07 05:52:12;;;;;;;13.60;9.90;;;-1.20;99.90;;;;;;5010376;28;20694;-78
2022/03/07 05:54:38;;;;;;;15.77;10.43;;;-1.20;99.90;;;;;;4992692;28;20362;-78
2022/03/07 05:57:03;;;;;;;15.87;11.00;;;-1.20;99.90;;;;;;4992219;28;20077;-78
2022/03/07 05:59:29;;;;;;;15.67;11.57;;;-1.20;99.90;;;;;;5010527;28;20053;-80
2022/03/07 06:01:54;;;;;;;13.57;10.43;;;-1.30;99.90;;;;;;5008646;28;20022;-79
2022/03/07 06:04:20;;;;;;;18.77;12.10;;;-1.30;99.90;;;;;;5010237;28;20459;-79
2022/03/07 06:06:50;;;;;;;18.63;10.33;;;-1.30;99.90;;;;;;5024431;23;20469;-78
2022/03/07 06:09:16;;;;;;;15.10;10.57;;;-1.20;99.90;;;;;;4988318;28;20026;-75
2022/03/07 06:11:42;;;;;;;28.40;14.63;;;-1.20;99.90;;;;;;4968340;28;20042;-73
2022/03/07 06:14:08;;;;;;;28.40;16.03;;;-1.20;99.90;;;;;;4991119;28;20035;-73
2022/03/07 06:16:33;;;;;;;36.80;16.33;;;-1.20;99.90;;;;;;4974001;28;20387;-73
2022/03/07 06:18:59;;;;;;;37.47;19.10;;;-1.20;99.90;;;;;;4984450;28;20054;-80
2022/03/07 06:21:24;;;;;;;33.73;17.63;;;-1.10;99.90;;;;;;4984970;28;20045;-73
2022/03/07 06:23:50;;;;;;;31.40;16.67;;;-1.10;99.90;;;;;;4987775;28;20097;-73
2022/03/07 06:26:16;;;;;;;23.17;13.27;;;-1.10;99.90;;;;;;4980698;28;20018;-73
2022/03/07 06:28:41;;;;;;;17.30;11.53;;;-1.20;99.90;;;;;;4992244;28;20046;-73
2022/03/07 06:31:07;;;;;;;15.00;11.13;;;-1.20;99.90;;;;;;4987557;28;20030;-72
2022/03/07 06:33:32;;;;;;;15.07;9.97;;;-1.10;99.90;;;;;;4986737;28;20101;-72
2022/03/07 06:35:58;;;;;;;17.57;11.47;;;-1.10;99.90;;;;;;4991367;28;20022;-73
2022/03/07 06:38:23;;;;;;;22.17;12.50;;;-1.10;99.90;;;;;;4984786;28;20423;-74
2022/03/07 06:40:49;;;;;;;18.73;11.70;;;-1.10;99.90;;;;;;4988998;28;20047;-79
2022/03/07 06:43:15;;;;;;;17.27;11.23;;;-0.90;99.90;;;;;;4980234;28;20053;-80
2022/03/07 06:45:40;;;;;;;17.87;12.17;;;-0.90;99.90;;;;;;4988086;28;20471;-73
2022/03/07 06:48:06;;;;;;;16.23;10.60;;;-0.70;99.90;;;;;;4977730;28;20407;-73
2022/03/07 06:50:32;;;;;;;17.27;11.57;;;-0.80;99.90;;;;;;4987567;28;20482;-73
2022/03/07 06:52:59;;;;;;;15.90;11.00;;;-0.90;99.90;;;;;;4984562;28;20027;-72
2022/03/07 06:55:24;;;;;;;20.00;12.47;;;-0.90;99.90;;;;;;4989116;28;20026;-72
2022/03/07 06:57:50;;;;;;;18.93;11.97;;;-0.80;99.90;;;;;;4989465;28;20414;-72
2022/03/07 07:00:17;;;;;;;20.87;12.43;;;-0.80;99.90;;;;;;4992864;28;20026;-72
2022/03/07 07:02:43;;;;;;;16.87;11.17;;;-0.80;99.90;;;;;;4992437;28;20028;-73
2022/03/07 07:05:10;;;;;;;22.70;14.77;;;-0.60;99.90;;;;;;4987880;28;20463;-73
2022/03/07 07:07:36;;;;;;;20.43;12.67;;;-0.60;99.90;;;;;;4982093;28;20053;-73
2022/03/07 07:10:04;;;;;;;18.97;12.53;;;-0.70;99.90;;;;;;4996050;28;20080;-73
2022/03/07 07:12:30;;;;;;;17.80;12.50;;;-0.70;99.90;;;;;;4996535;28;20030;-73
2022/03/07 07:14:55;;;;;;;21.57;12.70;;;-0.60;99.90;;;;;;4994493;28;20456;-73
2022/03/07 07:17:21;;;;;;;19.03;11.90;;;-0.50;99.90;;;;;;4993030;28;20390;-73
2022/03/07 07:19:46;;;;;;;19.17;12.70;;;-0.50;99.90;;;;;;4994137;28;20093;-73
2022/03/07 07:22:12;;;;;;;20.37;12.57;;;-0.40;99.90;;;;;;4994518;28;20027;-73
2022/03/07 07:24:38;;;;;;;16.40;12.07;;;-0.40;99.90;;;;;;4995430;28;20379;-73
2022/03/07 07:27:04;;;;;;;20.13;13.83;;;-0.40;99.90;;;;;;4994464;28;20125;-73
2022/03/07 07:29:29;;;;;;;38.37;19.17;;;-0.20;99.90;;;;;;4995795;28;20058;-73
2022/03/07 07:31:55;;;;;;;24.13;14.13;;;-0.20;99.90;;;;;;4993437;28;20030;-73
2022/03/07 07:34:22;;;;;;;17.73;12.67;;;-0.10;99.90;;;;;;4986138;28;20106;-73
2022/03/07 07:36:48;;;;;;;18.70;12.33;;;-0.10;99.90;;;;;;4992195;28;20050;-73
2022/03/07 07:39:14;;;;;;;18.00;12.47;;;-0.30;99.90;;;;;;4988150;28;20026;-80
2022/03/07 07:41:40;;;;;;;19.57;12.77;;;-0.20;99.90;;;;;;4985643;28;20474;-81
2022/03/07 07:44:06;;;;;;;18.07;12.40;;;-0.20;99.90;;;;;;4988780;28;20065;-81
2022/03/07 07:46:31;;;;;;;18.27;12.43;;;-0.10;99.90;;;;;;4989529;28;20651;-81
2022/03/07 07:48:57;;;;;;;18.03;12.50;;;-0.10;99.90;;;;;;4989532;28;20116;-81
2022/03/07 07:51:23;;;;;;;18.33;13.73;;;-0.10;99.90;;;;;;4991031;28;20037;-80
2022/03/07 07:53:48;;;;;;;18.23;13.47;;;0.10;99.90;;;;;;4987978;28;20561;-81
2022/03/07 07:56:14;;;;;;;21.40;14.47;;;0.00;99.90;;;;;;4970382;28;20023;-81
2022/03/07 07:58:40;;;;;;;22.87;14.93;;;0.00;99.90;;;;;;4981050;28;20475;-81
2022/03/07 08:01:07;;;;;;;24.23;16.53;;;0.00;99.90;;;;;;4991816;28;20030;-73
2022/03/07 08:03:33;;;;;;;21.53;13.93;;;0.00;99.90;;;;;;4990849;28;20057;-74
2022/03/07 08:05:59;;;;;;;20.97;14.27;;;0.00;99.90;;;;;;4994881;28;20045;-74
2022/03/07 08:08:24;;;;;;;23.07;13.30;;;0.10;99.90;;;;;;4995086;28;20053;-74
2022/03/07 08:10:50;;;;;;;21.57;13.97;;;0.20;99.90;;;;;;4990395;28;20034;-73
2022/03/07 08:13:16;;;;;;;20.20;13.83;;;0.40;99.90;;;;;;4986748;28;20044;-73
2022/03/07 08:15:41;;;;;;;22.60;15.07;;;0.50;99.90;;;;;;4990065;28;20055;-73
2022/03/07 08:18:07;;;;;;;20.53;14.10;;;0.70;99.90;;;;;;4994407;28;20092;-73
2022/03/07 08:20:34;;;;;;;20.57;14.03;;;0.80;99.90;;;;;;4994674;28;20072;-72
2022/03/07 08:23:00;;;;;;;24.07;15.97;;;0.90;99.90;;;;;;4994827;28;20030;-72
2022/03/07 08:25:25;;;;;;;21.60;15.17;;;0.90;99.90;;;;;;4995280;28;20023;-73
2022/03/07 08:27:52;;;;;;;21.90;14.53;;;0.90;99.90;;;;;;4978792;28;20126;-73
2022/03/07 08:30:25;;;;;;;20.33;13.87;;;0.80;99.90;;;;;;4992494;28;20397;-72
2022/03/07 08:32:51;;;;;;;23.30;14.73;;;1.00;99.90;;;;;;4995379;28;20018;-73
2022/03/07 08:35:17;;;;;;;19.13;14.10;;;1.10;99.90;;;;;;4977127;28;20137;-73
2022/03/07 08:37:46;;;;;;;22.30;14.40;;;1.20;99.90;;;;;;4995657;28;20022;-73
2022/03/07 08:40:15;;;;;;;18.63;13.30;;;1.20;99.90;;;;;;4995424;28;20030;-73
2022/03/07 08:42:41;;;;;;;21.63;14.80;;;1.30;99.90;;;;;;4995333;28;20053;-74
2022/03/07 08:45:07;;;;;;;23.07;14.57;;;1.40;99.90;;;;;;4995103;28;20027;-74
2022/03/07 08:47:34;;;;;;;21.97;15.37;;;1.50;99.90;;;;;;5010402;28;20030;-74
2022/03/07 08:50:01;;;;;;;21.10;14.50;;;1.50;99.90;;;;;;4994426;28;20052;-73
2022/03/07 08:52:27;;;;;;;24.97;14.80;;;1.40;99.90;;;;;;4989102;28;20084;-81
2022/03/07 08:54:52;;;;;;;29.40;18.53;;;1.50;99.90;;;;;;4988199;28;20042;-81
2022/03/07 08:57:18;;;;;;;25.13;14.93;;;1.50;99.90;;;;;;4989103;28;20042;-81
2022/03/07 08:59:44;;;;;;;25.43;15.97;;;1.60;99.90;;;;;;4989205;28;20155;-81
2022/03/07 09:02:10;;;;;;;22.33;15.67;;;1.60;99.90;;;;;;4988708;28;20056;-80
2022/03/07 09:04:42;;;;;;;25.13;15.73;;;1.60;99.90;;;;;;4971767;28;20030;-81
2022/03/07 09:07:08;;;;;;;22.20;15.13;;;1.70;99.90;;;;;;4989284;28;20522;-81
2022/03/07 09:09:34;;;;;;;21.30;15.07;;;1.80;99.90;;;;;;4990826;28;20023;-74
2022/03/07 09:12:00;;;;;;;23.87;14.70;;;1.80;99.90;;;;;;4977503;28;20186;-74
2022/03/07 09:14:26;;;;;;;22.10;15.53;;;1.80;99.90;;;;;;4994998;28;20468;-74
2022/03/07 09:16:52;;;;;;;22.60;14.00;;;2.00;99.90;;;;;;4993929;28;20026;-74
2022/03/07 09:19:17;;;;;;;18.87;14.23;;;2.20;99.90;;;;;;4994138;28;20023;-73
2022/03/07 09:21:43;;;;;;;23.50;16.47;;;2.10;99.90;;;;;;4993329;28;20022;-75
2022/03/07 09:24:08;;;;;;;20.87;15.17;;;1.90;99.90;;;;;;4990502;28;20022;-76
2022/03/07 09:26:34;;;;;;;23.13;15.77;;;1.90;99.90;;;;;;4985781;28;20041;-75
2022/03/07 09:29:00;;;;;;;22.17;16.23;;;2.00;99.90;;;;;;4966658;28;20050;-75
2022/03/07 09:31:26;;;;;;;26.17;16.53;;;2.20;99.90;;;;;;4985011;28;20096;-75
2022/03/07 09:33:51;;;;;;;27.73;15.77;;;2.20;99.90;;;;;;4991049;28;20109;-75
2022/03/07 09:36:17;;;;;;;24.10;16.63;;;2.30;99.90;;;;;;4990926;28;20023;-75
2022/03/07 09:38:43;;;;;;;20.07;15.13;;;2.30;99.90;;;;;;4989640;28;20054;-82
2022/03/07 09:41:10;;;;;;;25.67;16.20;;;2.30;99.90;;;;;;4988787;28;20030;-75
2022/03/07 09:43:35;;;;;;;22.93;16.00;;;2.30;99.90;;;;;;4973254;28;20212;-74
2022/03/07 09:46:02;;;;;;;28.97;16.90;;;2.20;99.90;;;;;;4990838;28;20126;-75
2022/03/07 09:48:27;;;;;;;24.03;16.43;;;2.20;99.90;;;;;;4990919;28;20030;-75
2022/03/07 09:50:53;;;;;;;23.97;16.63;;;2.30;99.90;;;;;;4991430;28;20394;-75
2022/03/07 09:53:19;;;;;;;26.83;16.27;;;2.20;99.90;;;;;;4989517;28;20485;-82
2022/03/07 09:55:46;;;;;;;23.77;16.57;;;2.30;99.90;;;;;;4988677;28;20038;-82
2022/03/07 09:58:12;;;;;;;26.10;18.20;;;2.40;99.90;;;;;;4987860;28;20172;-82
2022/03/07 10:00:41;;;;;;;28.20;19.33;;;2.50;99.90;;;;;;4986833;28;20030;-82
2022/03/07 10:03:10;;;;;;;24.60;17.53;;;2.50;99.90;;;;;;4987450;28;20487;-83
2022/03/07 10:05:41;;;;;;;24.37;17.67;;;2.50;99.90;;;;;;4987614;28;20034;-83
2022/03/07 10:08:08;;;;;;;25.03;18.47;;;2.40;99.90;;;;;;4987456;28;20057;-82
2022/03/07 10:10:37;;;;;;;24.97;17.83;;;2.30;99.90;;;;;;4986844;28;20035;-81
2022/03/07 10:13:13;;;;;;;23.80;16.83;;;2.20;99.90;;;;;;4988508;28;20054;-82
2022/03/07 10:15:41;;;;;;;27.63;17.83;;;2.20;99.90;;;;;;4988064;28;20364;-82
2022/03/07 10:18:19;;;;;;;24.27;17.20;;;2.50;99.90;;;;;;4969778;28;20053;-82
2022/03/07 10:20:50;;;;;;;24.90;17.93;;;2.90;99.90;;;;;;4963488;28;20034;-75
2022/03/07 10:23:19;;;;;;;37.60;23.47;;;3.20;99.90;;;;;;4973750;28;20019;-75
2022/03/07 10:25:46;;;;;;;25.93;19.30;;;3.30;99.90;;;;;;4953590;28;20118;-75
2022/03/07 10:28:12;;;;;;;23.00;16.57;;;3.40;99.90;;;;;;4970218;28;20109;-75
2022/03/07 10:30:39;;;;;;;28.87;19.47;;;3.70;99.90;;;;;;4984127;28;20030;-75
2022/03/07 10:33:09;;;;;;;26.60;18.40;;;3.90;99.90;;;;;;4989555;28;20058;-75
2022/03/07 10:35:37;;;;;;;24.40;16.83;;;4.00;99.90;;;;;;4988390;28;20054;-75
2022/03/07 10:38:05;;;;;;;32.27;20.70;;;3.80;99.90;;;;;;4990087;28;20027;-75
2022/03/07 10:40:32;;;;;;;22.53;16.77;;;3.90;99.90;;;;;;4971410;28;20034;-75
2022/03/07 10:43:00;;;;;;;26.30;18.00;;;3.80;99.90;;;;;;4989757;28;20032;-75
2022/03/07 10:45:27;;;;;;;28.23;20.07;;;3.60;99.90;;;;;;4991637;28;20056;-74
2022/03/07 10:48:01;;;;;;;28.77;19.87;;;3.60;99.90;;;;;;4992423;28;20022;-74
2022/03/07 10:50:28;;;;;;;25.90;18.57;;;3.70;99.90;;;;;;4978636;28;20034;-74
2022/03/07 10:53:00;;;;;;;23.33;17.30;;;3.80;99.90;;;;;;4987113;28;20379;-74
2022/03/07 10:55:27;;;;;;;25.83;17.90;;;3.60;99.90;;;;;;4992231;28;20030;-77
2022/03/07 10:57:53;;;;;;;27.07;18.03;;;3.60;99.90;;;;;;4995869;28;20032;-76
2022/03/07 11:00:20;;;;;;;26.23;19.27;;;3.30;99.90;;;;;;4995960;28;20438;-76
2022/03/07 11:02:47;;;;;;;24.57;18.07;;;3.20;99.90;;;;;;4974497;28;20418;-81
2022/03/07 11:05:15;;;;;;;25.50;18.33;;;3.10;99.90;;;;;;4991613;28;20034;-81
2022/03/07 11:07:46;;;;;;;27.27;17.90;;;3.20;99.90;;;;;;4990185;28;20042;-81
2022/03/07 11:10:14;;;;;;;23.97;17.33;;;3.40;99.90;;;;;;4991702;28;20368;-75
2022/03/07 11:12:41;;;;;;;30.00;20.53;;;3.30;99.90;;;;;;4992855;28;20041;-74
2022/03/07 11:15:10;;;;;;;26.77;18.57;;;3.10;99.90;;;;;;4993057;28;20034;-75
2022/03/07 11:17:41;;;;;;;26.23;18.97;;;3.00;99.90;;;;;;4992726;28;20053;-75
2022/03/07 11:20:09;;;;;;;24.73;19.00;;;3.00;99.90;;;;;;4993418;28;20030;-75
2022/03/07 11:22:35;;;;;;;29.03;20.43;;;2.70;99.90;;;;;;4993040;28;20030;-75
2022/03/07 11:25:02;;;;;;;35.50;21.43;;;2.60;99.90;;;;;;5001867;28;20062;-74
2022/03/07 11:27:28;;;;;;;29.50;19.83;;;2.70;99.90;;;;;;4988408;28;20411;-81
2022/03/07 11:29:57;;;;;;;27.03;18.30;;;2.60;99.90;;;;;;4989622;28;20925;-81
2022/03/07 11:32:23;;;;;;;35.77;22.27;;;2.60;99.90;;;;;;4990475;28;20593;-81
2022/03/07 11:34:57;;;;;;;28.53;19.97;;;2.20;99.90;;;;;;4991098;28;20065;-82
2022/03/07 11:37:27;;;;;;;27.23;19.77;;;2.20;99.90;;;;;;4971462;28;20027;-81
2022/03/07 11:39:56;;;;;;;29.77;19.67;;;2.40;99.90;;;;;;4989328;28;20085;-75
2022/03/07 11:42:22;;;;;;;22.03;17.00;;;2.50;99.90;;;;;;4991931;28;20041;-75
2022/03/07 11:44:48;;;;;;;26.07;19.70;;;2.80;99.90;;;;;;4990806;28;20026;-80
2022/03/07 11:47:19;;;;;;;24.87;19.10;;;2.80;99.90;;;;;;4988046;28;20035;-80
2022/03/07 11:49:46;;;;;;;29.90;20.87;;;3.10;99.90;;;;;;4990783;28;20022;-81
2022/03/07 11:52:17;;;;;;;25.83;18.87;;;3.60;99.90;;;;;;4989975;28;20383;-82
2022/03/07 11:55:07;;;;;;;27.23;18.70;;;3.90;99.90;;;;;;4991492;28;20037;-75
2022/03/07 11:57:39;;;;;;;22.83;17.73;;;4.00;99.90;;;;;;4992759;28;20479;-75
2022/03/07 12:00:26;;;;;;;24.47;18.07;;;3.90;99.90;;;;;;4992821;28;20102;-75
2022/03/07 12:02:54;;;;;;;26.10;18.53;;;3.90;99.90;;;;;;4975216;28;20141;-75
2022/03/07 12:05:32;;;;;;;25.80;18.57;;;3.70;99.90;;;;;;4989821;28;20026;-75
2022/03/07 12:08:26;;;;;;;25.37;17.80;;;3.60;99.90;;;;;;4977073;28;20038;-75
2022/03/07 12:11:02;;;;;;;26.10;18.93;;;3.50;99.90;;;;;;4979142;28;20048;-75
2022/03/07 12:13:36;;;;;;;26.03;19.30;;;3.20;99.90;;;;;;4974322;28;20447;-75
2022/03/07 12:16:02;;;;;;;25.70;18.73;;;3.30;99.90;;;;;;4974856;28;20504;-75
2022/03/07 12:18:30;;;;;;;27.67;20.20;;;3.40;99.90;;;;;;4974334;28;20458;-75
2022/03/07 12:20:59;;;;;;;24.83;18.40;;;3.40;99.90;;;;;;4990016;28;20130;-75
2022/03/07 12:23:27;;;;;;;27.83;19.47;;;3.30;99.90;;;;;;4991457;28;20049;-75
2022/03/07 12:26:08;;;;;;;29.23;18.67;;;3.30;99.90;;;;;;4991702;28;20061;-75
2022/03/07 12:28:40;;;;;;;28.03;19.80;;;3.10;99.90;;;;;;4991766;28;20572;-75
2022/03/07 12:31:06;;;;;;;28.53;20.60;;;3.10;99.90;;;;;;4989920;28;20030;-75